sensor_id;sensor_type;location;lat;lon;timestamp;P1;durP1;ratioP1;P2;durP2;ratioP2
72611;SDS011;60655;52.182;4.474;2023-05-10T00:00:57;30.17;;;15.85;;
72611;SDS011;60655;52.182;4.474;2023-05-10T00:02:58;30.88;;;17.27;;
72611;SDS011;60655;52.182;4.474;2023-05-10T00:04:59;27.30;;;15.77;;
72611;SDS011;60655;52.182;4.474;2023-05-10T00:06:59;30.65;;;16.23;;
72611;SDS011;60655;52.182;4.474;2023-05-10T00:09:00;27.08;;;14.75;;
72611;SDS011;60655;52.182;4.474;2023-05-10T00:11:01;31.67;;;18.00;;
72611;SDS011;60655;52.182;4.474;2023-05-10T00:13:02;28.55;;;16.98;;
72611;SDS011;60655;52.182;4.474;2023-05-10T00:15:05;30.30;;;16.38;;
72611;SDS011;60655;52.182;4.474;2023-05-10T00:17:06;35.97;;;17.92;;
72611;SDS011;60655;52.182;4.474;2023-05-10T00:19:07;28.98;;;16.70;;
72611;SDS011;60655;52.182;4.474;2023-05-10T00:21:08;31.00;;;17.38;;
72611;SDS011;60655;52.182;4.474;2023-05-10T00:23:09;31.60;;;17.73;;
72611;SDS011;60655;52.182;4.474;2023-05-10T00:25:10;30.95;;;17.73;;
72611;SDS011;60655;52.182;4.474;2023-05-10T00:27:11;32.40;;;17.75;;
72611;SDS011;60655;52.182;4.474;2023-05-10T00:29:12;32.97;;;17.52;;
72611;SDS011;60655;52.182;4.474;2023-05-10T00:31:13;33.00;;;17.17;;
72611;SDS011;60655;52.182;4.474;2023-05-10T00:33:15;33.10;;;16.27;;
72611;SDS011;60655;52.182;4.474;2023-05-10T00:35:16;30.17;;;16.60;;
72611;SDS011;60655;52.182;4.474;2023-05-10T00:37:17;33.70;;;17.10;;
72611;SDS011;60655;52.182;4.474;2023-05-10T00:39:18;40.22;;;18.38;;
72611;SDS011;60655;52.182;4.474;2023-05-10T00:41:18;29.20;;;17.10;;
72611;SDS011;60655;52.182;4.474;2023-05-10T00:43:19;31.05;;;16.55;;
72611;SDS011;60655;52.182;4.474;2023-05-10T00:45:20;30.05;;;15.95;;
72611;SDS011;60655;52.182;4.474;2023-05-10T00:47:22;28.95;;;15.80;;
72611;SDS011;60655;52.182;4.474;2023-05-10T00:49:23;25.30;;;14.43;;
72611;SDS011;60655;52.182;4.474;2023-05-10T00:51:24;30.42;;;15.55;;
72611;SDS011;60655;52.182;4.474;2023-05-10T00:53:25;29.80;;;16.98;;
72611;SDS011;60655;52.182;4.474;2023-05-10T00:55:27;29.55;;;16.25;;
72611;SDS011;60655;52.182;4.474;2023-05-10T00:57:28;28.40;;;15.65;;
72611;SDS011;60655;52.182;4.474;2023-05-10T00:59:29;28.60;;;15.80;;
72611;SDS011;60655;52.182;4.474;2023-05-10T01:01:30;31.17;;;16.40;;
72611;SDS011;60655;52.182;4.474;2023-05-10T01:03:31;32.92;;;17.45;;
72611;SDS011;60655;52.182;4.474;2023-05-10T01:05:33;31.15;;;16.77;;
72611;SDS011;60655;52.182;4.474;2023-05-10T01:07:34;32.47;;;16.75;;
72611;SDS011;60655;52.182;4.474;2023-05-10T01:09:35;35.17;;;17.52;;
72611;SDS011;60655;52.182;4.474;2023-05-10T01:11:36;32.10;;;17.05;;
72611;SDS011;60655;52.182;4.474;2023-05-10T01:13:39;37.25;;;18.38;;
72611;SDS011;60655;52.182;4.474;2023-05-10T01:15:42;33.40;;;18.10;;
72611;SDS011;60655;52.182;4.474;2023-05-10T01:17:44;40.25;;;18.20;;
72611;SDS011;60655;52.182;4.474;2023-05-10T01:19:47;34.92;;;18.67;;
72611;SDS011;60655;52.182;4.474;2023-05-10T01:37:39;47.38;;;20.48;;
72611;SDS011;60655;52.182;4.474;2023-05-10T01:39:44;47.13;;;20.10;;
72611;SDS011;60655;52.182;4.474;2023-05-10T01:41:49;51.50;;;21.13;;
72611;SDS011;60655;52.182;4.474;2023-05-10T01:48:21;49.28;;;17.92;;
72611;SDS011;60655;52.182;4.474;2023-05-10T01:50:24;47.33;;;19.85;;
72611;SDS011;60655;52.182;4.474;2023-05-10T01:52:30;51.08;;;19.70;;
72611;SDS011;60655;52.182;4.474;2023-05-10T01:54:34;53.90;;;20.42;;
72611;SDS011;60655;52.182;4.474;2023-05-10T01:56:39;49.83;;;20.92;;
72611;SDS011;60655;52.182;4.474;2023-05-10T01:58:43;47.97;;;20.17;;
72611;SDS011;60655;52.182;4.474;2023-05-10T02:00:47;49.92;;;22.00;;
72611;SDS011;60655;52.182;4.474;2023-05-10T02:02:51;50.92;;;20.75;;
72611;SDS011;60655;52.182;4.474;2023-05-10T02:04:53;55.88;;;22.70;;
72611;SDS011;60655;52.182;4.474;2023-05-10T02:06:57;53.78;;;21.85;;
72611;SDS011;60655;52.182;4.474;2023-05-10T02:08:58;55.28;;;21.83;;
72611;SDS011;60655;52.182;4.474;2023-05-10T02:11:01;53.13;;;21.83;;
72611;SDS011;60655;52.182;4.474;2023-05-10T02:13:04;51.20;;;20.48;;
72611;SDS011;60655;52.182;4.474;2023-05-10T02:15:08;48.00;;;19.52;;
72611;SDS011;60655;52.182;4.474;2023-05-10T02:17:10;51.97;;;21.65;;
72611;SDS011;60655;52.182;4.474;2023-05-10T02:19:12;49.80;;;21.23;;
72611;SDS011;60655;52.182;4.474;2023-05-10T02:21:16;52.75;;;20.77;;
72611;SDS011;60655;52.182;4.474;2023-05-10T02:23:19;54.97;;;22.55;;
72611;SDS011;60655;52.182;4.474;2023-05-10T02:25:21;49.10;;;20.27;;
72611;SDS011;60655;52.182;4.474;2023-05-10T02:27:24;46.65;;;22.48;;
72611;SDS011;60655;52.182;4.474;2023-05-10T02:29:27;49.60;;;19.15;;
72611;SDS011;60655;52.182;4.474;2023-05-10T02:31:30;56.05;;;22.17;;
72611;SDS011;60655;52.182;4.474;2023-05-10T02:33:33;57.25;;;20.65;;
72611;SDS011;60655;52.182;4.474;2023-05-10T02:35:35;54.50;;;21.65;;
72611;SDS011;60655;52.182;4.474;2023-05-10T02:37:38;51.13;;;22.02;;
72611;SDS011;60655;52.182;4.474;2023-05-10T02:39:41;56.45;;;22.92;;
72611;SDS011;60655;52.182;4.474;2023-05-10T02:41:44;61.33;;;24.45;;
72611;SDS011;60655;52.182;4.474;2023-05-10T02:43:47;55.60;;;23.50;;
72611;SDS011;60655;52.182;4.474;2023-05-10T02:45:51;51.72;;;23.52;;
72611;SDS011;60655;52.182;4.474;2023-05-10T02:47:52;54.15;;;23.90;;
72611;SDS011;60655;52.182;4.474;2023-05-10T02:49:53;50.67;;;23.05;;
72611;SDS011;60655;52.182;4.474;2023-05-10T02:51:56;50.35;;;21.88;;
72611;SDS011;60655;52.182;4.474;2023-05-10T02:54:10;55.33;;;22.08;;
72611;SDS011;60655;52.182;4.474;2023-05-10T02:56:34;54.63;;;24.15;;
72611;SDS011;60655;52.182;4.474;2023-05-10T02:58:36;54.30;;;23.52;;
72611;SDS011;60655;52.182;4.474;2023-05-10T03:00:37;51.13;;;20.67;;
72611;SDS011;60655;52.182;4.474;2023-05-10T03:02:38;56.08;;;23.98;;
72611;SDS011;60655;52.182;4.474;2023-05-10T03:04:39;59.10;;;25.35;;
72611;SDS011;60655;52.182;4.474;2023-05-10T03:06:40;54.40;;;22.58;;
72611;SDS011;60655;52.182;4.474;2023-05-10T03:08:42;49.05;;;21.95;;
72611;SDS011;60655;52.182;4.474;2023-05-10T03:17:55;56.28;;;25.40;;
72611;SDS011;60655;52.182;4.474;2023-05-10T03:20:03;56.97;;;22.85;;
72611;SDS011;60655;52.182;4.474;2023-05-10T03:22:10;62.83;;;24.98;;
72611;SDS011;60655;52.182;4.474;2023-05-10T03:24:13;56.50;;;21.60;;
72611;SDS011;60655;52.182;4.474;2023-05-10T03:26:26;55.13;;;24.13;;
72611;SDS011;60655;52.182;4.474;2023-05-10T03:28:28;38.05;;;16.95;;
72611;SDS011;60655;52.182;4.474;2023-05-10T03:30:30;47.08;;;20.73;;
72611;SDS011;60655;52.182;4.474;2023-05-10T03:32:33;45.28;;;20.80;;
72611;SDS011;60655;52.182;4.474;2023-05-10T03:34:35;49.47;;;16.13;;
72611;SDS011;60655;52.182;4.474;2023-05-10T03:38:43;41.75;;;14.40;;
72611;SDS011;60655;52.182;4.474;2023-05-10T03:40:44;56.15;;;17.70;;
72611;SDS011;60655;52.182;4.474;2023-05-10T03:42:45;51.20;;;18.17;;
72611;SDS011;60655;52.182;4.474;2023-05-10T03:44:46;41.55;;;16.25;;
72611;SDS011;60655;52.182;4.474;2023-05-10T03:46:46;36.35;;;14.50;;
72611;SDS011;60655;52.182;4.474;2023-05-10T03:48:47;39.88;;;14.60;;
72611;SDS011;60655;52.182;4.474;2023-05-10T03:50:48;29.83;;;13.13;;
72611;SDS011;60655;52.182;4.474;2023-05-10T03:52:52;37.35;;;13.48;;
72611;SDS011;60655;52.182;4.474;2023-05-10T03:54:53;32.95;;;13.63;;
72611;SDS011;60655;52.182;4.474;2023-05-10T03:56:54;36.53;;;14.75;;
72611;SDS011;60655;52.182;4.474;2023-05-10T03:58:55;37.83;;;15.10;;
72611;SDS011;60655;52.182;4.474;2023-05-10T04:00:56;31.90;;;14.77;;
72611;SDS011;60655;52.182;4.474;2023-05-10T04:02:57;34.63;;;14.07;;
72611;SDS011;60655;52.182;4.474;2023-05-10T04:04:58;35.15;;;14.40;;
72611;SDS011;60655;52.182;4.474;2023-05-10T04:06:59;32.70;;;12.57;;
72611;SDS011;60655;52.182;4.474;2023-05-10T04:09:00;32.00;;;14.10;;
72611;SDS011;60655;52.182;4.474;2023-05-10T04:11:05;36.47;;;15.40;;
72611;SDS011;60655;52.182;4.474;2023-05-10T04:13:07;37.15;;;16.45;;
72611;SDS011;60655;52.182;4.474;2023-05-10T04:15:08;38.60;;;16.55;;
72611;SDS011;60655;52.182;4.474;2023-05-10T04:17:09;43.58;;;17.65;;
72611;SDS011;60655;52.182;4.474;2023-05-10T04:19:11;38.65;;;16.60;;
72611;SDS011;60655;52.182;4.474;2023-05-10T04:21:12;38.35;;;15.95;;
72611;SDS011;60655;52.182;4.474;2023-05-10T04:23:14;31.98;;;13.77;;
72611;SDS011;60655;52.182;4.474;2023-05-10T04:25:17;31.23;;;13.20;;
72611;SDS011;60655;52.182;4.474;2023-05-10T04:27:17;28.58;;;10.85;;
72611;SDS011;60655;52.182;4.474;2023-05-10T04:29:18;27.73;;;10.23;;
72611;SDS011;60655;52.182;4.474;2023-05-10T04:31:19;25.38;;;10.60;;
72611;SDS011;60655;52.182;4.474;2023-05-10T04:33:20;25.42;;;9.23;;
72611;SDS011;60655;52.182;4.474;2023-05-10T04:35:21;27.77;;;10.23;;
72611;SDS011;60655;52.182;4.474;2023-05-10T04:37:22;30.15;;;10.55;;
72611;SDS011;60655;52.182;4.474;2023-05-10T04:39:23;30.08;;;11.27;;
72611;SDS011;60655;52.182;4.474;2023-05-10T04:41:24;28.60;;;10.23;;
72611;SDS011;60655;52.182;4.474;2023-05-10T04:43:25;25.45;;;10.80;;
72611;SDS011;60655;52.182;4.474;2023-05-10T04:45:26;26.70;;;10.98;;
72611;SDS011;60655;52.182;4.474;2023-05-10T04:47:27;27.52;;;10.75;;
72611;SDS011;60655;52.182;4.474;2023-05-10T04:49:28;27.90;;;10.82;;
72611;SDS011;60655;52.182;4.474;2023-05-10T04:51:30;29.15;;;11.00;;
72611;SDS011;60655;52.182;4.474;2023-05-10T04:53:31;27.58;;;10.75;;
72611;SDS011;60655;52.182;4.474;2023-05-10T04:55:33;30.48;;;11.27;;
72611;SDS011;60655;52.182;4.474;2023-05-10T04:57:34;28.30;;;10.27;;
72611;SDS011;60655;52.182;4.474;2023-05-10T04:59:35;29.02;;;10.90;;
72611;SDS011;60655;52.182;4.474;2023-05-10T05:01:37;31.52;;;11.15;;
72611;SDS011;60655;52.182;4.474;2023-05-10T05:03:38;29.05;;;10.10;;
72611;SDS011;60655;52.182;4.474;2023-05-10T05:05:39;32.58;;;11.80;;
72611;SDS011;60655;52.182;4.474;2023-05-10T05:07:40;28.73;;;10.40;;
72611;SDS011;60655;52.182;4.474;2023-05-10T05:09:41;28.25;;;11.23;;
72611;SDS011;60655;52.182;4.474;2023-05-10T05:11:42;28.45;;;10.63;;
72611;SDS011;60655;52.182;4.474;2023-05-10T05:13:43;25.25;;;10.15;;
72611;SDS011;60655;52.182;4.474;2023-05-10T05:15:44;24.58;;;9.80;;
72611;SDS011;60655;52.182;4.474;2023-05-10T05:17:45;29.70;;;11.70;;
72611;SDS011;60655;52.182;4.474;2023-05-10T05:19:46;27.42;;;11.68;;
72611;SDS011;60655;52.182;4.474;2023-05-10T05:21:47;28.27;;;11.57;;
72611;SDS011;60655;52.182;4.474;2023-05-10T05:23:48;31.58;;;11.35;;
72611;SDS011;60655;52.182;4.474;2023-05-10T05:25:49;26.83;;;10.02;;
72611;SDS011;60655;52.182;4.474;2023-05-10T05:27:50;26.45;;;10.48;;
72611;SDS011;60655;52.182;4.474;2023-05-10T05:29:54;28.52;;;11.13;;
72611;SDS011;60655;52.182;4.474;2023-05-10T05:31:58;30.05;;;11.60;;
72611;SDS011;60655;52.182;4.474;2023-05-10T05:33:59;20.02;;;9.13;;
72611;SDS011;60655;52.182;4.474;2023-05-10T05:36:01;24.77;;;9.45;;
72611;SDS011;60655;52.182;4.474;2023-05-10T05:38:05;20.25;;;8.95;;
72611;SDS011;60655;52.182;4.474;2023-05-10T05:40:07;18.17;;;8.43;;
72611;SDS011;60655;52.182;4.474;2023-05-10T05:42:08;19.65;;;7.13;;
72611;SDS011;60655;52.182;4.474;2023-05-10T05:44:10;14.20;;;6.55;;
72611;SDS011;60655;52.182;4.474;2023-05-10T05:46:11;18.65;;;6.72;;
72611;SDS011;60655;52.182;4.474;2023-05-10T05:48:12;12.30;;;5.03;;
72611;SDS011;60655;52.182;4.474;2023-05-10T05:50:13;11.55;;;5.38;;
72611;SDS011;60655;52.182;4.474;2023-05-10T05:52:14;12.05;;;5.43;;
72611;SDS011;60655;52.182;4.474;2023-05-10T05:54:15;11.10;;;4.88;;
72611;SDS011;60655;52.182;4.474;2023-05-10T05:56:16;11.23;;;4.63;;
72611;SDS011;60655;52.182;4.474;2023-05-10T05:58:24;9.95;;;4.47;;
72611;SDS011;60655;52.182;4.474;2023-05-10T06:00:26;11.02;;;3.88;;
72611;SDS011;60655;52.182;4.474;2023-05-10T06:02:27;10.27;;;4.13;;
72611;SDS011;60655;52.182;4.474;2023-05-10T06:04:27;8.70;;;3.88;;
72611;SDS011;60655;52.182;4.474;2023-05-10T06:06:28;8.32;;;3.78;;
72611;SDS011;60655;52.182;4.474;2023-05-10T06:08:29;6.72;;;2.85;;
72611;SDS011;60655;52.182;4.474;2023-05-10T06:10:30;9.23;;;3.58;;
72611;SDS011;60655;52.182;4.474;2023-05-10T06:12:31;8.23;;;3.67;;
72611;SDS011;60655;52.182;4.474;2023-05-10T06:14:32;7.32;;;2.63;;
72611;SDS011;60655;52.182;4.474;2023-05-10T06:16:33;6.10;;;2.60;;
72611;SDS011;60655;52.182;4.474;2023-05-10T06:18:35;9.55;;;3.30;;
72611;SDS011;60655;52.182;4.474;2023-05-10T06:20:36;7.32;;;2.80;;
72611;SDS011;60655;52.182;4.474;2023-05-10T06:22:36;6.30;;;3.08;;
72611;SDS011;60655;52.182;4.474;2023-05-10T06:24:37;8.93;;;3.22;;
72611;SDS011;60655;52.182;4.474;2023-05-10T06:26:38;7.30;;;3.00;;
72611;SDS011;60655;52.182;4.474;2023-05-10T06:28:39;7.18;;;3.10;;
72611;SDS011;60655;52.182;4.474;2023-05-10T06:30:41;6.85;;;3.10;;
72611;SDS011;60655;52.182;4.474;2023-05-10T06:32:42;10.38;;;3.80;;
72611;SDS011;60655;52.182;4.474;2023-05-10T06:34:44;8.50;;;3.95;;
72611;SDS011;60655;52.182;4.474;2023-05-10T06:36:45;9.50;;;4.28;;
72611;SDS011;60655;52.182;4.474;2023-05-10T06:38:46;9.70;;;4.55;;
72611;SDS011;60655;52.182;4.474;2023-05-10T06:40:47;9.65;;;5.32;;
72611;SDS011;60655;52.182;4.474;2023-05-10T06:42:48;10.88;;;5.45;;
72611;SDS011;60655;52.182;4.474;2023-05-10T06:44:49;10.70;;;5.15;;
72611;SDS011;60655;52.182;4.474;2023-05-10T06:46:50;12.68;;;5.43;;
72611;SDS011;60655;52.182;4.474;2023-05-10T06:48:53;9.05;;;4.95;;
72611;SDS011;60655;52.182;4.474;2023-05-10T06:50:53;11.45;;;5.38;;
72611;SDS011;60655;52.182;4.474;2023-05-10T06:52:54;11.27;;;6.13;;
72611;SDS011;60655;52.182;4.474;2023-05-10T06:54:56;11.50;;;6.32;;
72611;SDS011;60655;52.182;4.474;2023-05-10T06:56:58;9.57;;;5.10;;
72611;SDS011;60655;52.182;4.474;2023-05-10T06:58:59;13.07;;;5.53;;
72611;SDS011;60655;52.182;4.474;2023-05-10T07:01:03;13.32;;;5.72;;
72611;SDS011;60655;52.182;4.474;2023-05-10T07:03:05;12.70;;;5.57;;
72611;SDS011;60655;52.182;4.474;2023-05-10T07:05:06;17.23;;;5.72;;
72611;SDS011;60655;52.182;4.474;2023-05-10T07:07:08;16.58;;;7.10;;
72611;SDS011;60655;52.182;4.474;2023-05-10T07:09:09;12.38;;;6.18;;
72611;SDS011;60655;52.182;4.474;2023-05-10T07:11:10;11.15;;;5.55;;
72611;SDS011;60655;52.182;4.474;2023-05-10T07:13:11;9.93;;;4.38;;
72611;SDS011;60655;52.182;4.474;2023-05-10T07:15:12;12.15;;;5.45;;
72611;SDS011;60655;52.182;4.474;2023-05-10T07:17:13;13.32;;;5.15;;
72611;SDS011;60655;52.182;4.474;2023-05-10T07:19:14;10.98;;;3.97;;
72611;SDS011;60655;52.182;4.474;2023-05-10T07:21:15;9.52;;;3.70;;
72611;SDS011;60655;52.182;4.474;2023-05-10T07:23:16;8.55;;;3.85;;
72611;SDS011;60655;52.182;4.474;2023-05-10T07:25:18;9.07;;;4.03;;
72611;SDS011;60655;52.182;4.474;2023-05-10T07:27:19;11.70;;;4.65;;
72611;SDS011;60655;52.182;4.474;2023-05-10T07:29:20;9.63;;;4.47;;
72611;SDS011;60655;52.182;4.474;2023-05-10T07:31:21;10.50;;;4.35;;
72611;SDS011;60655;52.182;4.474;2023-05-10T07:33:22;11.63;;;3.90;;
72611;SDS011;60655;52.182;4.474;2023-05-10T07:35:23;10.02;;;3.50;;
72611;SDS011;60655;52.182;4.474;2023-05-10T07:37:24;8.85;;;3.15;;
72611;SDS011;60655;52.182;4.474;2023-05-10T07:39:25;7.57;;;3.25;;
72611;SDS011;60655;52.182;4.474;2023-05-10T07:41:27;8.15;;;3.47;;
72611;SDS011;60655;52.182;4.474;2023-05-10T07:43:28;10.00;;;3.20;;
72611;SDS011;60655;52.182;4.474;2023-05-10T07:45:29;9.05;;;3.35;;
72611;SDS011;60655;52.182;4.474;2023-05-10T07:47:29;8.30;;;3.45;;
72611;SDS011;60655;52.182;4.474;2023-05-10T07:49:30;6.55;;;2.80;;
72611;SDS011;60655;52.182;4.474;2023-05-10T07:51:31;7.05;;;2.78;;
72611;SDS011;60655;52.182;4.474;2023-05-10T07:53:32;8.10;;;2.90;;
72611;SDS011;60655;52.182;4.474;2023-05-10T07:55:33;8.95;;;3.25;;
72611;SDS011;60655;52.182;4.474;2023-05-10T07:57:34;5.65;;;2.30;;
72611;SDS011;60655;52.182;4.474;2023-05-10T07:59:35;7.57;;;2.65;;
72611;SDS011;60655;52.182;4.474;2023-05-10T08:01:36;7.75;;;2.30;;
72611;SDS011;60655;52.182;4.474;2023-05-10T08:03:37;8.20;;;2.55;;
72611;SDS011;60655;52.182;4.474;2023-05-10T08:05:38;10.18;;;2.30;;
72611;SDS011;60655;52.182;4.474;2023-05-10T08:07:39;6.68;;;2.22;;
72611;SDS011;60655;52.182;4.474;2023-05-10T08:09:40;6.15;;;2.42;;
72611;SDS011;60655;52.182;4.474;2023-05-10T08:11:41;6.45;;;2.80;;
72611;SDS011;60655;52.182;4.474;2023-05-10T08:13:42;5.97;;;2.30;;
72611;SDS011;60655;52.182;4.474;2023-05-10T08:15:44;5.63;;;2.42;;
72611;SDS011;60655;52.182;4.474;2023-05-10T08:17:45;6.13;;;2.65;;
72611;SDS011;60655;52.182;4.474;2023-05-10T08:19:46;6.18;;;2.50;;
72611;SDS011;60655;52.182;4.474;2023-05-10T08:21:47;5.50;;;2.35;;
72611;SDS011;60655;52.182;4.474;2023-05-10T08:23:48;7.15;;;2.20;;
72611;SDS011;60655;52.182;4.474;2023-05-10T08:25:49;6.30;;;2.53;;
72611;SDS011;60655;52.182;4.474;2023-05-10T08:27:50;6.80;;;2.80;;
72611;SDS011;60655;52.182;4.474;2023-05-10T08:29:51;6.78;;;2.50;;
72611;SDS011;60655;52.182;4.474;2023-05-10T08:31:52;7.18;;;2.38;;
72611;SDS011;60655;52.182;4.474;2023-05-10T08:33:53;6.50;;;2.50;;
72611;SDS011;60655;52.182;4.474;2023-05-10T08:35:54;6.35;;;2.50;;
72611;SDS011;60655;52.182;4.474;2023-05-10T08:37:55;5.15;;;1.98;;
72611;SDS011;60655;52.182;4.474;2023-05-10T08:39:56;8.85;;;2.38;;
72611;SDS011;60655;52.182;4.474;2023-05-10T08:41:57;6.90;;;2.35;;
72611;SDS011;60655;52.182;4.474;2023-05-10T08:44:02;6.72;;;2.70;;
72611;SDS011;60655;52.182;4.474;2023-05-10T08:46:04;6.47;;;2.60;;
72611;SDS011;60655;52.182;4.474;2023-05-10T08:48:09;6.03;;;2.22;;
72611;SDS011;60655;52.182;4.474;2023-05-10T08:50:10;6.78;;;2.75;;
72611;SDS011;60655;52.182;4.474;2023-05-10T08:52:12;5.75;;;2.33;;
72611;SDS011;60655;52.182;4.474;2023-05-10T08:54:15;4.50;;;2.00;;
72611;SDS011;60655;52.182;4.474;2023-05-10T08:56:16;6.15;;;2.17;;
72611;SDS011;60655;52.182;4.474;2023-05-10T08:58:19;8.18;;;2.42;;
72611;SDS011;60655;52.182;4.474;2023-05-10T09:00:21;5.07;;;2.03;;
72611;SDS011;60655;52.182;4.474;2023-05-10T09:02:23;8.40;;;2.75;;
72611;SDS011;60655;52.182;4.474;2023-05-10T09:04:25;8.23;;;2.70;;
72611;SDS011;60655;52.182;4.474;2023-05-10T09:06:26;7.80;;;3.25;;
72611;SDS011;60655;52.182;4.474;2023-05-10T09:08:27;8.95;;;3.08;;
72611;SDS011;60655;52.182;4.474;2023-05-10T09:10:29;5.90;;;3.13;;
72611;SDS011;60655;52.182;4.474;2023-05-10T09:12:31;7.00;;;3.50;;
72611;SDS011;60655;52.182;4.474;2023-05-10T09:14:33;8.48;;;3.45;;
72611;SDS011;60655;52.182;4.474;2023-05-10T09:16:35;8.85;;;4.20;;
72611;SDS011;60655;52.182;4.474;2023-05-10T09:18:36;9.20;;;3.88;;
72611;SDS011;60655;52.182;4.474;2023-05-10T09:20:37;11.32;;;4.15;;
72611;SDS011;60655;52.182;4.474;2023-05-10T09:22:38;10.93;;;4.60;;
72611;SDS011;60655;52.182;4.474;2023-05-10T09:24:42;11.25;;;4.70;;
72611;SDS011;60655;52.182;4.474;2023-05-10T09:26:46;12.05;;;5.68;;
72611;SDS011;60655;52.182;4.474;2023-05-10T09:30:53;13.27;;;5.85;;
72611;SDS011;60655;52.182;4.474;2023-05-10T09:32:55;16.25;;;6.43;;
72611;SDS011;60655;52.182;4.474;2023-05-10T09:34:57;17.35;;;7.22;;
72611;SDS011;60655;52.182;4.474;2023-05-10T09:37:07;21.13;;;7.95;;
72611;SDS011;60655;52.182;4.474;2023-05-10T09:39:08;15.07;;;6.15;;
72611;SDS011;60655;52.182;4.474;2023-05-10T09:41:15;14.40;;;6.72;;
72611;SDS011;60655;52.182;4.474;2023-05-10T09:43:19;19.25;;;6.85;;
72611;SDS011;60655;52.182;4.474;2023-05-10T09:45:21;20.67;;;7.82;;
72611;SDS011;60655;52.182;4.474;2023-05-10T09:47:23;13.65;;;5.90;;
72611;SDS011;60655;52.182;4.474;2023-05-10T09:49:26;14.73;;;6.30;;
72611;SDS011;60655;52.182;4.474;2023-05-10T09:51:27;17.20;;;7.53;;
72611;SDS011;60655;52.182;4.474;2023-05-10T09:53:28;15.68;;;6.50;;
72611;SDS011;60655;52.182;4.474;2023-05-10T09:55:39;15.68;;;6.72;;
72611;SDS011;60655;52.182;4.474;2023-05-10T09:57:46;14.70;;;6.68;;
72611;SDS011;60655;52.182;4.474;2023-05-10T09:59:48;15.45;;;6.05;;
72611;SDS011;60655;52.182;4.474;2023-05-10T10:01:50;17.08;;;6.60;;
72611;SDS011;60655;52.182;4.474;2023-05-10T10:03:52;15.80;;;6.72;;
72611;SDS011;60655;52.182;4.474;2023-05-10T10:05:53;16.75;;;6.95;;
72611;SDS011;60655;52.182;4.474;2023-05-10T10:07:59;19.27;;;7.22;;
72611;SDS011;60655;52.182;4.474;2023-05-10T10:10:01;21.77;;;8.00;;
72611;SDS011;60655;52.182;4.474;2023-05-10T10:12:03;19.92;;;7.43;;
72611;SDS011;60655;52.182;4.474;2023-05-10T10:14:05;20.58;;;8.65;;
72611;SDS011;60655;52.182;4.474;2023-05-10T10:16:06;17.23;;;7.40;;
72611;SDS011;60655;52.182;4.474;2023-05-10T10:18:12;21.85;;;7.43;;
72611;SDS011;60655;52.182;4.474;2023-05-10T10:20:15;21.48;;;8.18;;
72611;SDS011;60655;52.182;4.474;2023-05-10T10:22:16;25.63;;;8.02;;
72611;SDS011;60655;52.182;4.474;2023-05-10T10:24:17;20.33;;;7.88;;
72611;SDS011;60655;52.182;4.474;2023-05-10T10:26:18;18.90;;;7.70;;
72611;SDS011;60655;52.182;4.474;2023-05-10T10:28:24;20.02;;;7.35;;
72611;SDS011;60655;52.182;4.474;2023-05-10T10:30:43;18.08;;;7.60;;
72611;SDS011;60655;52.182;4.474;2023-05-10T10:34:53;26.17;;;8.80;;
72611;SDS011;60655;52.182;4.474;2023-05-10T10:36:56;25.02;;;8.77;;
72611;SDS011;60655;52.182;4.474;2023-05-10T10:38:58;35.03;;;9.52;;
72611;SDS011;60655;52.182;4.474;2023-05-10T10:41:49;30.60;;;8.00;;
72611;SDS011;60655;52.182;4.474;2023-05-10T10:43:29;29.02;;;9.07;;
72611;SDS011;60655;52.182;4.474;2023-05-10T10:45:30;24.65;;;9.57;;
72611;SDS011;60655;52.182;4.474;2023-05-10T10:47:31;29.65;;;9.50;;
72611;SDS011;60655;52.182;4.474;2023-05-10T10:51:40;25.30;;;8.75;;
72611;SDS011;60655;52.182;4.474;2023-05-10T10:54:26;27.20;;;8.65;;
72611;SDS011;60655;52.182;4.474;2023-05-10T10:56:28;25.50;;;8.32;;
72611;SDS011;60655;52.182;4.474;2023-05-10T10:58:30;27.92;;;8.93;;
72611;SDS011;60655;52.182;4.474;2023-05-10T11:00:37;25.08;;;7.72;;
72611;SDS011;60655;52.182;4.474;2023-05-10T11:04:42;17.83;;;7.03;;
72611;SDS011;60655;52.182;4.474;2023-05-10T11:06:44;19.70;;;6.75;;
72611;SDS011;60655;52.182;4.474;2023-05-10T11:08:45;15.18;;;6.07;;
72611;SDS011;60655;52.182;4.474;2023-05-10T11:13:08;11.50;;;4.85;;
72611;SDS011;60655;52.182;4.474;2023-05-10T11:15:10;14.75;;;5.03;;
72611;SDS011;60655;52.182;4.474;2023-05-10T11:17:24;17.40;;;5.20;;
72611;SDS011;60655;52.182;4.474;2023-05-10T11:19:27;14.68;;;4.85;;
72611;SDS011;60655;52.182;4.474;2023-05-10T11:21:32;12.75;;;4.85;;
72611;SDS011;60655;52.182;4.474;2023-05-10T11:25:45;13.35;;;6.07;;
72611;SDS011;60655;52.182;4.474;2023-05-10T11:27:49;13.05;;;5.57;;
72611;SDS011;60655;52.182;4.474;2023-05-10T11:29:53;17.63;;;5.70;;
72611;SDS011;60655;52.182;4.474;2023-05-10T11:31:56;15.77;;;5.50;;
72611;SDS011;60655;52.182;4.474;2023-05-10T11:33:59;19.67;;;5.70;;
72611;SDS011;60655;52.182;4.474;2023-05-10T11:36:02;15.00;;;5.72;;
72611;SDS011;60655;52.182;4.474;2023-05-10T11:38:04;19.35;;;6.57;;
72611;SDS011;60655;52.182;4.474;2023-05-10T11:40:09;18.92;;;6.70;;
72611;SDS011;60655;52.182;4.474;2023-05-10T11:42:11;16.20;;;6.72;;
72611;SDS011;60655;52.182;4.474;2023-05-10T11:44:12;19.73;;;6.55;;
72611;SDS011;60655;52.182;4.474;2023-05-10T11:46:13;13.38;;;5.82;;
72611;SDS011;60655;52.182;4.474;2023-05-10T11:48:14;18.90;;;5.72;;
72611;SDS011;60655;52.182;4.474;2023-05-10T11:50:17;20.38;;;5.97;;
72611;SDS011;60655;52.182;4.474;2023-05-10T11:52:18;21.65;;;6.45;;
72611;SDS011;60655;52.182;4.474;2023-05-10T11:54:20;16.67;;;6.05;;
72611;SDS011;60655;52.182;4.474;2023-05-10T11:56:21;18.88;;;5.68;;
72611;SDS011;60655;52.182;4.474;2023-05-10T11:58:22;17.95;;;5.93;;
72611;SDS011;60655;52.182;4.474;2023-05-10T12:00:23;14.27;;;4.78;;
72611;SDS011;60655;52.182;4.474;2023-05-10T12:02:24;11.68;;;4.45;;
72611;SDS011;60655;52.182;4.474;2023-05-10T12:04:26;9.95;;;3.60;;
72611;SDS011;60655;52.182;4.474;2023-05-10T12:06:30;9.02;;;4.47;;
72611;SDS011;60655;52.182;4.474;2023-05-10T12:08:32;11.43;;;4.38;;
72611;SDS011;60655;52.182;4.474;2023-05-10T12:10:34;14.23;;;5.07;;
72611;SDS011;60655;52.182;4.474;2023-05-10T12:12:39;13.60;;;5.47;;
72611;SDS011;60655;52.182;4.474;2023-05-10T12:16:43;16.25;;;5.10;;
72611;SDS011;60655;52.182;4.474;2023-05-10T12:18:44;16.40;;;5.53;;
72611;SDS011;60655;52.182;4.474;2023-05-10T12:20:45;18.92;;;6.80;;
72611;SDS011;60655;52.182;4.474;2023-05-10T12:22:50;18.95;;;6.22;;
72611;SDS011;60655;52.182;4.474;2023-05-10T12:24:53;20.35;;;6.15;;
72611;SDS011;60655;52.182;4.474;2023-05-10T12:26:54;19.02;;;6.05;;
72611;SDS011;60655;52.182;4.474;2023-05-10T12:28:55;17.85;;;6.55;;
72611;SDS011;60655;52.182;4.474;2023-05-10T12:31:18;20.83;;;6.40;;
72611;SDS011;60655;52.182;4.474;2023-05-10T12:33:19;15.15;;;6.57;;
72611;SDS011;60655;52.182;4.474;2023-05-10T12:35:20;18.02;;;6.85;;
72611;SDS011;60655;52.182;4.474;2023-05-10T12:37:23;17.33;;;6.63;;
72611;SDS011;60655;52.182;4.474;2023-05-10T12:39:40;14.80;;;5.70;;
72611;SDS011;60655;52.182;4.474;2023-05-10T12:41:42;16.08;;;5.65;;
72611;SDS011;60655;52.182;4.474;2023-05-10T12:43:44;19.95;;;6.05;;
72611;SDS011;60655;52.182;4.474;2023-05-10T12:45:48;16.48;;;6.38;;
72611;SDS011;60655;52.182;4.474;2023-05-10T12:47:49;20.02;;;8.00;;